createdAt,value
2022-11-27T00:01:37.496Z,101453.31
2022-11-27T00:04:07.807Z,101442.66
2022-11-27T00:06:38.123Z,101446.31
2022-11-27T00:09:11.871Z,101458.06
2022-11-27T00:11:40.431Z,101457.53
2022-11-27T00:14:18.040Z,101452.50
2022-11-27T00:16:45.636Z,101468.25
2022-11-27T00:19:13.538Z,101464.50
2022-11-27T00:21:41.306Z,101470.94
2022-11-27T00:24:11.140Z,101475.25
2022-11-27T00:26:44.378Z,101470.69
2022-11-27T00:29:12.267Z,101469.91
2022-11-27T00:31:40.014Z,101470.94
2022-11-27T00:34:09.103Z,101476.22
2022-11-27T00:36:37.802Z,101479.41
2022-11-27T00:39:06.457Z,101484.72
2022-11-27T00:41:34.316Z,101481.75
2022-11-27T00:44:02.351Z,101488.94
2022-11-27T00:46:33.348Z,101480.88
2022-11-27T00:49:04.378Z,101489.41
2022-11-27T00:51:32.223Z,101483.00
2022-11-27T00:54:00.595Z,101476.34
2022-11-27T00:56:32.123Z,101487.31
2022-11-27T00:59:00.496Z,101474.25
2022-11-27T01:01:42.524Z,101463.88
2022-11-27T01:04:15.148Z,101462.78
2022-11-27T01:06:43.531Z,101461.22
2022-11-27T01:09:15.517Z,101465.44
2022-11-27T01:11:43.446Z,101472.38
2022-11-27T01:14:16.680Z,101466.25
2022-11-27T01:16:44.786Z,101461.72
2022-11-27T01:19:14.367Z,101452.13
2022-11-27T01:21:42.430Z,101453.19
2022-11-27T01:24:12.526Z,101451.28
2022-11-27T01:26:41.129Z,101449.41
2022-11-27T01:29:09.131Z,101446.75
2022-11-27T01:31:36.973Z,101443.56
2022-11-27T01:34:13.266Z,101444.38
2022-11-27T01:36:41.156Z,101437.19
2022-11-27T01:39:19.955Z,101442.25
2022-11-27T01:41:48.995Z,101439.28
2022-11-27T01:44:25.821Z,101437.13
2022-11-27T01:47:10.436Z,101435.78
2022-11-27T01:49:44.674Z,101441.91
2022-11-27T01:52:24.039Z,101441.09
2022-11-27T01:55:28.263Z,101430.72
2022-11-27T01:58:07.505Z,101429.19
2022-11-27T02:00:36.211Z,101419.09
2022-11-27T02:03:04.102Z,101423.91
2022-11-27T02:05:33.473Z,101422.31
2022-11-27T02:08:07.764Z,101423.41
2022-11-27T02:10:54.728Z,101422.56
2022-11-27T02:13:36.949Z,101418.34
2022-11-27T02:16:44.180Z,101416.50
2022-11-27T02:20:03.492Z,101411.44
2022-11-27T02:23:18.021Z,101410.13
2022-11-27T02:26:15.658Z,101409.63
2022-11-27T02:29:20.347Z,101413.09
2022-11-27T02:32:26.030Z,101422.16
2022-11-27T02:35:32.375Z,101414.94
2022-11-27T02:38:15.451Z,101416.56
2022-11-27T02:40:54.868Z,101418.13
2022-11-27T02:43:40.766Z,101413.88
2022-11-27T02:46:11.008Z,101416.56
2022-11-27T02:48:48.002Z,101414.94
2022-11-27T02:51:22.547Z,101414.94
2022-11-27T02:53:59.341Z,101412.28
2022-11-27T02:56:31.018Z,101409.63
2022-11-27T02:59:05.236Z,101404.81
2022-11-27T03:01:40.808Z,101405.38
2022-11-27T03:04:15.491Z,101410.72
2022-11-27T03:06:49.337Z,101407.22
2022-11-27T03:09:27.906Z,101414.16
2022-11-27T03:11:57.256Z,101406.44
2022-11-27T03:14:25.828Z,101404.06
2022-11-27T03:17:10.633Z,101405.16
2022-11-27T03:19:45.868Z,101404.84
2022-11-27T03:22:13.728Z,101411.25
2022-11-27T03:24:41.653Z,101411.25
2022-11-27T03:27:13.810Z,101413.38
2022-11-27T03:29:59.028Z,101414.16
2022-11-27T03:32:29.226Z,101412.00
2022-11-27T03:34:57.514Z,101412.25
2022-11-27T03:37:25.951Z,101411.13
2022-11-27T03:39:54.181Z,101411.09
2022-11-27T03:42:39.428Z,101411.81
2022-11-27T03:45:38.654Z,101412.88
2022-11-27T03:48:21.399Z,101409.94
2022-11-27T03:51:16.526Z,101413.09
2022-11-27T03:54:05.612Z,101406.16
2022-11-27T03:57:03.793Z,101406.44
2022-11-27T03:59:37.597Z,101404.59
2022-11-27T04:02:05.242Z,101408.31
2022-11-27T04:04:33.082Z,101410.47
2022-11-27T04:07:00.634Z,101405.16
2022-11-27T04:09:28.427Z,101408.38
2022-11-27T04:11:55.917Z,101408.38
2022-11-27T04:14:23.649Z,101407.34
2022-11-27T04:16:51.212Z,101411.59
2022-11-27T04:19:19.020Z,101407.34
2022-11-27T04:21:46.528Z,101412.38
2022-11-27T04:24:14.407Z,101411.31
2022-11-27T04:26:41.845Z,101403.59
2022-11-27T04:29:09.736Z,101407.06
2022-11-27T04:31:37.303Z,101410.03
2022-11-27T04:34:05.210Z,101412.09
2022-11-27T04:36:38.858Z,101413.97
2022-11-27T04:39:07.338Z,101422.50
2022-11-27T04:41:34.955Z,101426.25
2022-11-27T04:44:02.761Z,101432.63
2022-11-27T04:46:30.563Z,101431.84
2022-11-27T04:48:58.372Z,101427.31
2022-11-27T04:51:25.942Z,101421.19
2022-11-27T04:53:53.894Z,101435.06
2022-11-27T04:56:21.493Z,101427.63
2022-11-27T04:58:49.366Z,101423.13
2022-11-27T05:01:17.020Z,101422.13
2022-11-27T05:03:46.594Z,101413.06
2022-11-27T05:06:14.313Z,101417.28
2022-11-27T05:08:42.234Z,101426.88
2022-11-27T05:11:14.289Z,101422.84
2022-11-27T05:13:43.010Z,101420.72
2022-11-27T05:16:10.914Z,101414.06
2022-11-27T05:18:38.827Z,101418.63
2022-11-27T05:21:08.559Z,101423.13
2022-11-27T05:23:36.484Z,101414.63
2022-11-27T05:26:04.075Z,101416.78
2022-11-27T05:28:31.948Z,101407.22
2022-11-27T05:30:59.872Z,101408.59
2022-11-27T05:33:27.746Z,101409.16
2022-11-27T05:35:55.389Z,101406.75
2022-11-27T05:38:23.134Z,101404.34
2022-11-27T05:40:50.642Z,101409.94
2022-11-27T05:43:18.546Z,101414.19
2022-11-27T05:45:46.013Z,101408.59
2022-11-27T05:48:13.875Z,101412.84
2022-11-27T05:50:41.409Z,101416.31
2022-11-27T05:53:09.347Z,101416.31
2022-11-27T05:55:36.808Z,101421.66
2022-11-27T05:58:04.794Z,101423.25
2022-11-27T06:00:32.482Z,101422.75
2022-11-27T06:03:00.536Z,101434.81
2022-11-27T06:05:28.162Z,101434.63
2022-11-27T06:07:56.011Z,101433.56
2022-11-27T06:10:23.653Z,101441.28
2022-11-27T06:12:51.471Z,101448.19
2022-11-27T06:15:18.912Z,101445.78
2022-11-27T06:17:49.279Z,101450.56
2022-11-27T06:20:17.386Z,101449.97
2022-11-27T06:22:45.285Z,101455.53
2022-11-27T06:25:12.795Z,101442.22
2022-11-27T06:27:40.713Z,101447.84
2022-11-27T06:30:09.456Z,101451.31
2022-11-27T06:32:37.308Z,101445.97
2022-11-27T06:35:05.409Z,101452.88
2022-11-27T06:37:33.390Z,101459.81
2022-11-27T06:40:01.001Z,101458.47
2022-11-27T06:42:32.228Z,101461.97
2022-11-27T06:44:59.750Z,101468.84
2022-11-27T06:47:27.756Z,101467.25
2022-11-27T06:49:55.328Z,101474.69
2022-11-27T06:52:23.196Z,101461.09
2022-11-27T06:54:50.739Z,101467.44
2022-11-27T06:57:18.664Z,101466.09
2022-11-27T06:59:46.418Z,101466.91
2022-11-27T07:02:15.380Z,101463.41
2022-11-27T07:04:43.025Z,101463.13
2022-11-27T07:07:11.213Z,101467.69
2022-11-27T07:09:42.057Z,101474.63
2022-11-27T07:12:11.485Z,101466.63
2022-11-27T07:14:39.229Z,101454.63
2022-11-27T07:17:07.315Z,101456.00
2022-11-27T07:19:34.849Z,101456.56
2022-11-27T07:22:03.003Z,101454.16
2022-11-27T07:24:30.503Z,101454.94
2022-11-27T07:26:58.441Z,101464.56
2022-11-27T07:29:26.105Z,101455.19
2022-11-27T07:31:53.913Z,101456.78
2022-11-27T07:34:22.050Z,101457.56
2022-11-27T07:36:49.897Z,101456.78
2022-11-27T07:39:33.886Z,101456.00
2022-11-27T07:42:36.432Z,101448.53
2022-11-27T07:44:55.664Z,101452.75
2022-11-27T07:47:23.498Z,101460.19
2022-11-27T07:49:51.105Z,101461.03
2022-11-27T07:52:19.082Z,101458.34
2022-11-27T07:54:46.561Z,101457.25
2022-11-27T07:57:14.329Z,101446.31
2022-11-27T07:59:46.987Z,101449.75
2022-11-27T08:02:15.922Z,101444.66
2022-11-27T08:04:43.790Z,101445.69
2022-11-27T08:07:12.627Z,101444.03
2022-11-27T08:09:40.357Z,101441.31
2022-11-27T08:12:08.225Z,101445.56
2022-11-27T08:14:36.027Z,101442.31
2022-11-27T08:17:03.881Z,101441.19
2022-11-27T08:19:31.549Z,101437.16
2022-11-27T08:21:59.448Z,101437.16
2022-11-27T08:24:26.940Z,101438.41
2022-11-27T08:26:55.082Z,101445.56
2022-11-27T08:29:22.864Z,101441.56
2022-11-27T08:31:50.681Z,101443.63
2022-11-27T08:34:18.248Z,101447.41
2022-11-27T08:36:46.142Z,101444.47
2022-11-27T08:39:14.383Z,101439.63
2022-11-27T08:41:42.323Z,101437.19
2022-11-27T08:44:09.913Z,101448.63
2022-11-27T08:46:37.838Z,101442.25
2022-11-27T08:49:05.400Z,101436.84
2022-11-27T08:51:33.233Z,101443.41
2022-11-27T08:54:00.664Z,101440.69
2022-11-27T08:56:28.865Z,101445.34
2022-11-27T08:58:57.272Z,101447.94
2022-11-27T09:01:29.694Z,101445.22
2022-11-27T09:03:57.832Z,101440.38
2022-11-27T09:06:29.955Z,101447.59
2022-11-27T09:08:59.939Z,101443.63
2022-11-27T09:11:31.201Z,101439.44
2022-11-27T09:14:03.882Z,101428.53
2022-11-27T09:16:50.156Z,101434.44
2022-11-27T09:19:18.207Z,101428.31
2022-11-27T09:21:46.936Z,101430.47
2022-11-27T09:24:14.396Z,101432.69
2022-11-27T09:26:42.318Z,101420.72
2022-11-27T09:29:09.791Z,101425.03
2022-11-27T09:31:37.619Z,101415.72
2022-11-27T09:34:05.875Z,101419.47
2022-11-27T09:36:33.840Z,101407.22
2022-11-27T09:39:04.239Z,101407.72
2022-11-27T09:41:55.405Z,101408.22
2022-11-27T09:44:45.360Z,101401.81
2022-11-27T09:47:42.010Z,101404.50
2022-11-27T09:50:24.375Z,101407.94
2022-11-27T09:53:06.463Z,101405.00
2022-11-27T09:55:47.285Z,101402.59
2022-11-27T09:58:21.578Z,101393.81
2022-11-27T10:00:49.145Z,101395.16
2022-11-27T10:03:25.553Z,101394.94
2022-11-27T10:06:22.083Z,101389.09
2022-11-27T10:09:19.333Z,101387.00
2022-11-27T10:12:30.692Z,101384.63
2022-11-27T10:15:13.969Z,101377.72
2022-11-27T10:18:01.579Z,101381.44
2022-11-27T10:20:32.896Z,101378.78
2022-11-27T10:23:14.858Z,101378.00
2022-11-27T10:25:52.489Z,101369.78
2022-11-27T10:28:48.941Z,101365.28
2022-11-27T10:31:50.226Z,101358.34
2022-11-27T10:34:58.557Z,101359.94
2022-11-27T10:38:10.150Z,101357.28
2022-11-27T10:40:49.148Z,101348.22
2022-11-27T10:43:23.296Z,101345.53
2022-11-27T10:46:20.467Z,101347.63
2022-11-27T10:48:48.746Z,101353.19
2022-11-27T10:51:29.354Z,101351.81
2022-11-27T10:54:01.042Z,101354.72
2022-11-27T10:57:33.413Z,101356.03
2022-11-27T11:00:13.544Z,101351.03
2022-11-27T11:02:41.919Z,101342.22
2022-11-27T11:08:20.868Z,101349.22
2022-11-27T11:10:57.901Z,101340.16
2022-11-27T11:13:41.367Z,101348.16
2022-11-27T11:16:14.790Z,101345.25
2022-11-27T11:18:49.671Z,101340.28
2022-11-27T11:21:29.693Z,101339.25
2022-11-27T11:24:05.092Z,101343.78
2022-11-27T11:26:51.411Z,101344.28
2022-11-27T11:29:46.751Z,101338.22
2022-11-27T11:32:21.580Z,101326.09
2022-11-27T11:35:08.539Z,101332.03
2022-11-27T11:37:45.486Z,101325.06
2022-11-27T11:40:23.703Z,101325.19
2022-11-27T11:43:01.257Z,101318.75
2022-11-27T11:45:34.568Z,101324.63
2022-11-27T11:48:28.179Z,101322.47
2022-11-27T11:51:26.421Z,101325.34
2022-11-27T11:54:40.207Z,101318.09
2022-11-27T11:57:45.786Z,101313.25
2022-11-27T12:00:18.375Z,101305.78
2022-11-27T12:03:05.719Z,101307.09
2022-11-27T12:06:07.194Z,101314.56
2022-11-27T12:08:56.383Z,101321.78
2022-11-27T12:12:18.677Z,101315.44
2022-11-27T12:15:16.290Z,101321.84
2022-11-27T12:18:42.973Z,101313.31
2022-11-27T12:21:30.790Z,101318.94
2022-11-27T12:24:29.194Z,101313.38
2022-11-27T12:27:15.965Z,101311.63
2022-11-27T12:30:23.880Z,101315.72
2022-11-27T12:33:13.090Z,101311.53
2022-11-27T12:36:07.129Z,101307.38
2022-11-27T12:39:03.576Z,101306.97
2022-11-27T12:42:12.438Z,101306.78
2022-11-27T12:48:39.371Z,101300.59
2022-11-27T12:57:33.960Z,101316.97
2022-11-27T13:00:08.072Z,101303.66
2022-11-27T13:03:01.133Z,101300.94
2022-11-27T13:05:41.309Z,101298.53
2022-11-27T13:11:36.315Z,101293.47
2022-11-27T13:14:26.939Z,101294.50
2022-11-27T13:17:05.252Z,101286.50
2022-11-27T13:19:47.180Z,101285.72
2022-11-27T13:22:27.531Z,101293.22
2022-11-27T13:24:56.749Z,101287.56
2022-11-27T13:27:29.529Z,101288.88
2022-11-27T13:30:09.672Z,101288.66
2022-11-27T13:32:48.601Z,101280.09
2022-11-27T13:35:36.571Z,101285.94
2022-11-27T13:38:26.476Z,101284.34
2022-11-27T13:40:57.531Z,101281.41
2022-11-27T13:43:47.123Z,101281.63
2022-11-27T13:46:26.497Z,101290.72
2022-11-27T13:49:02.884Z,101280.63
2022-11-27T13:51:35.300Z,101288.31
2022-11-27T13:54:29.413Z,101289.13
2022-11-27T13:56:56.936Z,101289.63
2022-11-27T13:59:26.095Z,101292.56
2022-11-27T14:01:58.672Z,101282.78
2022-11-27T14:04:29.134Z,101283.34
2022-11-27T14:07:10.332Z,101281.16
2022-11-27T14:09:46.577Z,101285.66
2022-11-27T14:12:29.539Z,101277.91
2022-11-27T14:15:16.667Z,101279.19
2022-11-27T14:17:47.538Z,101278.91
2022-11-27T14:20:18.176Z,101266.16
2022-11-27T14:23:13.207Z,101272.13
2022-11-27T14:25:41.822Z,101270.06
2022-11-27T14:28:21.682Z,101270.56
2022-11-27T14:30:56.967Z,101267.13
2022-11-27T14:33:33.217Z,101269.22
2022-11-27T14:36:08.054Z,101256.47
2022-11-27T14:38:37.230Z,101264.19
2022-11-27T14:41:16.477Z,101258.84
2022-11-27T14:43:44.144Z,101258.03
2022-11-27T14:46:21.593Z,101263.59
2022-11-27T14:48:57.454Z,101262.53
2022-11-27T14:51:29.095Z,101258.22
2022-11-27T14:54:25.603Z,101253.97
2022-11-27T14:56:54.174Z,101253.97
2022-11-27T14:59:24.022Z,101258.50
2022-11-27T15:02:11.452Z,101262.28
2022-11-27T15:04:42.262Z,101258.03
2022-11-27T15:07:25.175Z,101255.09
2022-11-27T15:09:56.927Z,101260.41
2022-11-27T15:12:30.692Z,101268.63
2022-11-27T15:15:29.028Z,101256.19
2022-11-27T15:18:03.645Z,101255.72
2022-11-27T15:20:42.596Z,101261.69
2022-11-27T15:23:34.098Z,101265.97
2022-11-27T15:26:17.816Z,101266.00
2022-11-27T15:28:53.114Z,101267.59
2022-11-27T15:31:38.249Z,101258.84
2022-11-27T15:34:30.127Z,101265.97
2022-11-27T15:37:03.813Z,101264.38
2022-11-27T15:39:53.408Z,101257.19
2022-11-27T15:42:22.430Z,101265.44
2022-11-27T15:44:55.865Z,101266.78
2022-11-27T15:47:27.523Z,101269.72
2022-11-27T15:49:56.143Z,101266.53
2022-11-27T15:52:23.895Z,101265.50
2022-11-27T15:54:52.532Z,101267.09
2022-11-27T15:57:20.369Z,101265.50
2022-11-27T15:59:50.792Z,101269.75
2022-11-27T16:02:20.828Z,101271.34
2022-11-27T16:04:50.470Z,101256.44
2022-11-27T16:07:18.080Z,101258.03
2022-11-27T16:09:49.159Z,101259.34
2022-11-27T16:12:16.837Z,101261.44
2022-11-27T16:14:44.679Z,101255.81
2022-11-27T16:17:12.338Z,101250.44
2022-11-27T16:19:40.827Z,101258.97
2022-11-27T16:22:08.618Z,101253.63
2022-11-27T16:24:38.049Z,101259.47
2022-11-27T16:27:07.260Z,101258.09
2022-11-27T16:29:35.049Z,101258.38
2022-11-27T16:32:03.441Z,101260.81
2022-11-27T16:34:31.343Z,101253.91
2022-11-27T16:36:59.471Z,101250.97
2022-11-27T16:39:28.620Z,101250.69
2022-11-27T16:41:57.303Z,101245.63
2022-11-27T16:44:25.472Z,101250.69
2022-11-27T16:46:53.855Z,101255.19
2022-11-27T16:49:21.992Z,101252.03
2022-11-27T16:51:50.787Z,101251.53
2022-11-27T16:54:19.668Z,101254.97
2022-11-27T16:56:47.481Z,101242.44
2022-11-27T16:59:15.707Z,101250.44
2022-11-27T17:01:44.785Z,101253.63
2022-11-27T17:04:20.632Z,101255.19
2022-11-27T17:06:50.369Z,101253.03
2022-11-27T17:09:20.491Z,101242.69
2022-11-27T17:11:49.091Z,101251.47
2022-11-27T17:14:19.942Z,101249.88
2022-11-27T17:16:48.038Z,101242.44
2022-11-27T17:19:17.765Z,101249.66
2022-11-27T17:21:46.283Z,101244.59
2022-11-27T17:24:17.061Z,101236.59
2022-11-27T17:26:48.078Z,101238.22
2022-11-27T17:29:20.982Z,101235.03
2022-11-27T17:31:50.710Z,101233.44
2022-11-27T17:34:19.013Z,101241.16
2022-11-27T17:36:53.383Z,101237.16
2022-11-27T17:39:21.826Z,101224.38
2022-11-27T17:41:49.494Z,101226.50
2022-11-27T17:44:17.423Z,101229.72
2022-11-27T17:46:49.938Z,101221.19
2022-11-27T17:49:19.459Z,101225.44
2022-11-27T17:51:48.204Z,101224.16
2022-11-27T17:54:16.243Z,101223.63
2022-11-27T17:56:51.105Z,101222.28
2022-11-27T17:59:20.338Z,101223.34
2022-11-27T18:01:51.441Z,101221.19
2022-11-27T18:04:20.918Z,101221.19
2022-11-27T18:06:48.989Z,101221.19
2022-11-27T18:09:16.958Z,101216.69
2022-11-27T18:11:44.728Z,101214.78
2022-11-27T18:14:13.730Z,101218.84
2022-11-27T18:16:42.414Z,101218.03
2022-11-27T18:19:12.072Z,101207.69
2022-11-27T18:21:40.587Z,101205.31
2022-11-27T18:24:22.983Z,101207.19
2022-11-27T18:27:10.560Z,101200.00
2022-11-27T18:29:42.495Z,101200.56
2022-11-27T18:32:12.052Z,101199.47
2022-11-27T18:34:40.602Z,101209.63
2022-11-27T18:37:09.251Z,101203.28
2022-11-27T18:39:38.792Z,101208.09
2022-11-27T18:42:07.768Z,101201.69
2022-11-27T18:47:35.049Z,101202.31
2022-11-27T18:50:06.887Z,101194.88
2022-11-27T18:52:37.063Z,101200.72
2022-11-27T18:55:06.208Z,101197.78
2022-11-27T18:57:33.751Z,101199.66
2022-11-27T19:00:01.705Z,101196.97
2022-11-27T19:02:29.980Z,101198.84
2022-11-27T19:04:58.359Z,101192.75
2022-11-27T19:07:28.168Z,101192.75
2022-11-27T19:09:58.909Z,101186.09
2022-11-27T19:12:26.757Z,101184.75
2022-11-27T19:14:55.824Z,101187.97
2022-11-27T19:17:30.844Z,101187.47
2022-11-27T19:20:00.630Z,101184.81
2022-11-27T19:22:28.982Z,101192.25
2022-11-27T19:24:57.939Z,101185.09
2022-11-27T19:27:25.978Z,101184.88
2022-11-27T19:29:54.271Z,101186.44
2022-11-27T19:32:22.402Z,101193.34
2022-11-27T19:34:51.517Z,101191.72
2022-11-27T19:37:33.467Z,101187.97
2022-11-27T19:40:04.116Z,101185.81
2022-11-27T19:42:32.679Z,101189.56
2022-11-27T19:45:00.607Z,101182.09
2022-11-27T19:47:28.187Z,101180.72
2022-11-27T19:49:56.077Z,101179.94
2022-11-27T19:52:23.794Z,101176.44
2022-11-27T19:54:51.668Z,101176.44
2022-11-27T19:57:19.427Z,101180.16
2022-11-27T19:59:47.339Z,101182.56
2022-11-27T20:02:18.025Z,101183.06
2022-11-27T20:04:46.785Z,101182.78
2022-11-27T20:07:15.180Z,101171.34
2022-11-27T20:09:43.525Z,101170.81
2022-11-27T20:12:11.449Z,101170.31
2022-11-27T20:14:39.699Z,101170.06
2022-11-27T20:17:08.012Z,101171.97
2022-11-27T20:19:36.096Z,101175.41
2022-11-27T20:22:03.823Z,101169.28
2022-11-27T20:24:31.793Z,101161.31
2022-11-27T20:26:59.988Z,101161.81
2022-11-27T20:29:28.346Z,101169.00
2022-11-27T20:31:55.884Z,101158.66
2022-11-27T20:34:24.069Z,101163.47
2022-11-27T20:36:51.725Z,101154.88
2022-11-27T20:39:21.869Z,101155.44
2022-11-27T20:41:52.165Z,101159.09
2022-11-27T20:44:22.603Z,101160.69
2022-11-27T20:46:51.131Z,101158.31
2022-11-27T20:49:20.721Z,101161.25
2022-11-27T20:51:50.662Z,101158.66
2022-11-27T20:54:23.128Z,101155.47
2022-11-27T20:56:51.694Z,101161.38
2022-11-27T20:59:20.106Z,101151.78
2022-11-27T21:01:51.904Z,101146.44
2022-11-27T21:04:26.367Z,101149.13
2022-11-27T21:06:54.511Z,101152.66
2022-11-27T21:09:22.725Z,101145.44
2022-11-27T21:11:50.859Z,101140.13
2022-11-27T21:14:19.485Z,101133.19
2022-11-27T21:16:49.954Z,101133.25
2022-11-27T21:19:26.487Z,101135.97
2022-11-27T21:21:57.210Z,101135.97
2022-11-27T21:24:28.487Z,101133.84
2022-11-27T21:26:56.767Z,101129.63
2022-11-27T21:29:27.812Z,101125.88
2022-11-27T21:31:57.214Z,101129.06
2022-11-27T21:34:29.083Z,101130.41
2022-11-27T21:36:57.535Z,101126.47
2022-11-27T21:39:36.685Z,101129.91
2022-11-27T21:42:14.192Z,101121.66
2022-11-27T21:44:51.777Z,101126.41
2022-11-27T21:47:24.850Z,101126.41
2022-11-27T21:49:52.860Z,101125.31
2022-11-27T21:52:20.600Z,101125.31
2022-11-27T21:54:50.892Z,101121.59
2022-11-27T21:57:20.721Z,101117.34
2022-11-27T21:59:48.712Z,101112.78
2022-11-27T22:02:16.529Z,101114.16
2022-11-27T22:04:44.794Z,101107.78
2022-11-27T22:07:12.621Z,101103.25
2022-11-27T22:09:40.973Z,101118.94
2022-11-27T22:12:08.860Z,101129.06
2022-11-27T22:14:36.807Z,101109.91
2022-11-27T22:17:05.130Z,101107.25
2022-11-27T22:19:36.546Z,101113.88
2022-11-27T22:22:08.898Z,101116.28
2022-11-27T22:24:58.950Z,101115.72
2022-11-27T22:27:40.605Z,101110.91
2022-11-27T22:30:09.350Z,101101.53
2022-11-27T22:32:37.053Z,101116.72
2022-11-27T22:35:05.920Z,101116.72
2022-11-27T22:37:35.541Z,101109.81
2022-11-27T22:40:05.748Z,101113.56
2022-11-27T22:42:34.033Z,101105.84
2022-11-27T22:45:02.497Z,101113.88
2022-11-27T22:47:29.981Z,101107.03
2022-11-27T22:49:59.085Z,101114.78
2022-11-27T22:52:28.005Z,101106.28
2022-11-27T22:54:56.012Z,101107.31
2022-11-27T22:57:23.828Z,101111.06
2022-11-27T22:59:51.771Z,101106.78
2022-11-27T23:02:19.638Z,101106.28
2022-11-27T23:04:47.605Z,101108.44
2022-11-27T23:07:15.278Z,101100.19
2022-11-27T23:09:43.238Z,101111.09
2022-11-27T23:12:10.783Z,101115.34
2022-11-27T23:14:39.944Z,101111.91
2022-11-27T23:17:07.850Z,101117.44
2022-11-27T23:19:35.825Z,101104.91
2022-11-27T23:22:03.371Z,101115.88
2022-11-27T23:24:31.220Z,101111.84
2022-11-27T23:26:58.821Z,101113.22
2022-11-27T23:29:26.927Z,101107.06
2022-11-27T23:31:54.580Z,101105.78
2022-11-27T23:34:22.628Z,101110.00
2022-11-27T23:36:50.285Z,101102.63
2022-11-27T23:39:18.177Z,101113.75
2022-11-27T23:41:46.824Z,101100.97
2022-11-27T23:44:15.070Z,101100.97
2022-11-27T23:46:42.777Z,101097.81
2022-11-27T23:49:11.002Z,101088.72
2022-11-27T23:51:38.634Z,101082.63
2022-11-27T23:54:10.457Z,101078.09
2022-11-27T23:56:39.935Z,101078.66
2022-11-27T23:59:08.024Z,101078.66
